Time;durP1;ratioP1;P1;durP2;ratioP2;P2;SDS_P1;SDS_P2;PMS_P1;PMS_P2;Temp;Humidity;BMP_temperature;BMP_pressure;BME280_temperature;BME280_humidity;BME280_pressure;Samples;Min_cycle;Max_cycle;Signal;HPM_P1;HPM_P2
2021/10/17 00:00:06;;;;;;;9.80;6.72;;;7.00;76.80;;;;;;5075354;28;20277;-64
2021/10/17 00:02:39;;;;;;;9.25;6.20;;;7.00;76.60;;;;;;5075531;28;20276;-63
2021/10/17 00:05:08;;;;;;;7.50;6.10;;;7.00;76.90;;;;;;5075376;28;20720;-63
2021/10/17 00:07:36;;;;;;;8.82;6.68;;;6.90;76.60;;;;;;5075289;28;20796;-63
2021/10/17 00:10:04;;;;;;;8.80;6.63;;;6.90;76.60;;;;;;5075120;28;20313;-63
2021/10/17 00:12:31;;;;;;;9.65;7.47;;;6.90;76.70;;;;;;5075001;28;20285;-63
2021/10/17 00:14:58;;;;;;;8.82;8.05;;;6.90;76.40;;;;;;5074999;28;20339;-63
2021/10/17 00:17:25;;;;;;;8.43;7.63;;;6.80;76.30;;;;;;5075055;28;20307;-63
2021/10/17 00:19:52;;;;;;;8.00;7.25;;;6.90;76.40;;;;;;5075034;28;20286;-63
2021/10/17 00:22:21;;;;;;;9.32;8.43;;;6.80;76.60;;;;;;5074712;28;20293;-63
2021/10/17 00:24:54;;;;;;;8.38;7.07;;;6.80;76.90;;;;;;5075000;28;20277;-63
2021/10/17 00:27:21;;;;;;;8.10;7.30;;;6.90;77.90;;;;;;5074798;28;20284;-62
2021/10/17 00:29:48;;;;;;;8.35;7.60;;;6.90;77.30;;;;;;5074636;28;20193;-63
2021/10/17 00:32:15;;;;;;;9.45;6.40;;;6.80;77.80;;;;;;5074774;28;20190;-63
2021/10/17 00:34:43;;;;;;;9.15;8.00;;;6.80;77.80;;;;;;5074730;28;20548;-63
2021/10/17 00:37:12;;;;;;;8.93;7.82;;;6.80;77.70;;;;;;5074518;28;20530;-64
2021/10/17 00:39:41;;;;;;;7.30;6.32;;;6.80;76.80;;;;;;5074120;28;20185;-63
2021/10/17 00:42:08;;;;;;;9.95;8.90;;;6.70;76.30;;;;;;5074486;28;20284;-64
2021/10/17 00:44:38;;;;;;;8.00;7.07;;;6.70;76.20;;;;;;5074693;28;20647;-63
2021/10/17 00:47:10;;;;;;;7.50;5.78;;;6.70;75.90;;;;;;5074335;28;20224;-63
2021/10/17 00:49:39;;;;;;;7.95;6.47;;;6.70;75.80;;;;;;5074502;28;20266;-64
2021/10/17 00:52:06;;;;;;;7.35;6.22;;;6.70;75.40;;;;;;5074585;28;20281;-63
2021/10/17 00:54:34;;;;;;;7.35;6.65;;;6.60;76.10;;;;;;5074470;28;20201;-63
2021/10/17 00:57:03;;;;;;;7.85;5.90;;;6.60;76.20;;;;;;5074214;28;20248;-63
2021/10/17 00:59:30;;;;;;;6.75;5.93;;;6.50;75.70;;;;;;5073162;28;20221;-63
2021/10/17 01:01:57;;;;;;;7.78;6.03;;;6.50;75.50;;;;;;5074248;28;20232;-63
2021/10/17 01:04:24;;;;;;;7.20;6.07;;;6.50;75.80;;;;;;5073895;28;20281;-63
2021/10/17 01:06:51;;;;;;;6.55;4.75;;;6.50;75.70;;;;;;5074078;28;20229;-63
2021/10/17 01:09:23;;;;;;;6.45;5.78;;;6.50;75.60;;;;;;5073667;28;20280;-63
2021/10/17 01:11:52;;;;;;;7.68;5.10;;;6.50;75.20;;;;;;5074186;28;20190;-63
2021/10/17 01:14:22;;;;;;;7.35;5.40;;;6.50;75.40;;;;;;5073729;28;20247;-63
2021/10/17 01:16:51;;;;;;;7.95;6.30;;;6.40;75.60;;;;;;5073891;28;20285;-63
2021/10/17 01:19:20;;;;;;;7.60;5.20;;;6.40;74.70;;;;;;5073554;28;20787;-63
2021/10/17 01:21:49;;;;;;;7.38;5.80;;;6.30;74.60;;;;;;5073582;28;20281;-63
2021/10/17 01:24:17;;;;;;;8.82;5.20;;;6.20;75.70;;;;;;5073865;28;20597;-63
2021/10/17 01:26:45;;;;;;;6.03;5.43;;;6.20;75.00;;;;;;5073534;28;20190;-63
2021/10/17 01:29:14;;;;;;;7.32;6.53;;;5.90;74.90;;;;;;5073584;28;20605;-63
2021/10/17 01:31:53;;;;;;;5.10;4.60;;;5.90;76.20;;;;;;5073532;28;20273;-63
2021/10/17 01:34:22;;;;;;;5.05;4.38;;;5.80;76.40;;;;;;5073504;28;20193;-63
2021/10/17 01:36:51;;;;;;;8.77;6.43;;;5.90;77.50;;;;;;5073391;28;20277;-63
2021/10/17 01:39:20;;;;;;;6.10;5.32;;;5.80;78.00;;;;;;5073304;28;20304;-62
2021/10/17 01:41:48;;;;;;;7.70;5.97;;;5.80;78.20;;;;;;5073368;28;20228;-62
2021/10/17 01:44:23;;;;;;;7.80;5.20;;;5.80;78.10;;;;;;5073383;28;20281;-63
2021/10/17 01:46:50;;;;;;;10.45;6.78;;;5.80;78.00;;;;;;5073447;28;20232;-63
2021/10/17 01:49:17;;;;;;;7.80;5.50;;;5.80;77.20;;;;;;5072925;28;20276;-63
2021/10/17 01:51:44;;;;;;;5.63;4.30;;;5.70;77.40;;;;;;5073017;28;20233;-63
2021/10/17 01:54:13;;;;;;;7.25;4.80;;;5.70;77.20;;;;;;5073060;28;20652;-63
2021/10/17 01:56:40;;;;;;;6.45;5.55;;;5.70;77.00;;;;;;5073090;28;20236;-63
2021/10/17 01:59:08;;;;;;;7.40;5.75;;;5.60;76.10;;;;;;5072739;28;20631;-64
2021/10/17 02:01:37;;;;;;;7.03;5.28;;;5.60;77.20;;;;;;5073192;28;20240;-63
2021/10/17 02:04:05;;;;;;;7.32;5.35;;;5.60;78.60;;;;;;5073106;28;20248;-63
2021/10/17 02:06:32;;;;;;;5.97;5.28;;;5.60;78.30;;;;;;5073149;28;20204;-63
2021/10/17 02:09:08;;;;;;;5.72;4.97;;;5.60;78.10;;;;;;5072653;28;20312;-63
2021/10/17 02:11:36;;;;;;;6.05;5.45;;;5.60;78.80;;;;;;5072909;28;20276;-63
2021/10/17 02:14:04;;;;;;;7.53;5.30;;;5.60;79.20;;;;;;5072979;28;20194;-63
2021/10/17 02:16:31;;;;;;;5.20;4.47;;;5.70;79.30;;;;;;5072916;28;20372;-63
2021/10/17 02:18:58;;;;;;;6.97;5.00;;;5.70;79.20;;;;;;5072636;28;20309;-63
2021/10/17 02:21:25;;;;;;;6.65;5.22;;;5.80;79.20;;;;;;5072976;28;20272;-63
2021/10/17 02:23:52;;;;;;;6.00;5.07;;;5.80;79.20;;;;;;5072534;28;20709;-62
2021/10/17 02:26:19;;;;;;;4.60;3.92;;;5.80;78.90;;;;;;5072315;28;20731;-63
2021/10/17 02:28:47;;;;;;;5.80;5.20;;;5.80;78.80;;;;;;5072715;28;20225;-63
2021/10/17 02:31:14;;;;;;;4.93;4.00;;;5.90;79.00;;;;;;5072730;28;20321;-63
2021/10/17 02:33:41;;;;;;;5.20;4.05;;;5.80;77.50;;;;;;5072647;28;20670;-63
2021/10/17 02:36:08;;;;;;;5.78;4.60;;;5.70;76.20;;;;;;5072468;28;20225;-63
2021/10/17 02:38:37;;;;;;;6.20;4.80;;;5.70;76.30;;;;;;5072665;28;20316;-63
2021/10/17 02:41:07;;;;;;;5.30;4.80;;;5.60;75.50;;;;;;5072581;28;20277;-63
2021/10/17 02:43:37;;;;;;;5.65;4.90;;;5.50;76.40;;;;;;5072892;28;20197;-63
2021/10/17 02:46:05;;;;;;;5.78;4.40;;;5.50;77.20;;;;;;5072436;28;20277;-63
2021/10/17 02:48:32;;;;;;;5.53;4.30;;;5.40;76.90;;;;;;5072258;28;20292;-63
2021/10/17 02:50:59;;;;;;;7.90;4.60;;;5.40;76.90;;;;;;5072257;28;20236;-62
2021/10/17 02:53:26;;;;;;;5.07;4.57;;;5.30;75.70;;;;;;5072402;28;20352;-63
2021/10/17 02:55:53;;;;;;;5.68;4.43;;;5.30;75.40;;;;;;5072235;28;20194;-63
2021/10/17 02:58:20;;;;;;;6.18;3.60;;;5.20;76.20;;;;;;5072215;28;20256;-63
2021/10/17 03:00:47;;;;;;;6.35;4.10;;;5.20;75.50;;;;;;5072297;28;20292;-64
2021/10/17 03:03:16;;;;;;;7.88;4.50;;;5.20;75.60;;;;;;5071871;28;20725;-63
2021/10/17 03:05:43;;;;;;;6.22;4.82;;;5.20;76.30;;;;;;5072205;28;20276;-63
2021/10/17 03:08:10;;;;;;;5.10;4.32;;;5.10;76.90;;;;;;5072339;28;20228;-63
2021/10/17 03:10:37;;;;;;;7.18;5.30;;;5.10;77.00;;;;;;5072099;28;20308;-63
2021/10/17 03:13:04;;;;;;;7.55;4.55;;;5.10;77.10;;;;;;5072346;28;20281;-62
2021/10/17 03:15:31;;;;;;;6.28;4.63;;;5.10;77.00;;;;;;5072253;28;20292;-63
2021/10/17 03:17:58;;;;;;;6.28;5.65;;;5.10;77.40;;;;;;5071914;28;20217;-63
2021/10/17 03:20:26;;;;;;;6.25;5.65;;;5.10;77.70;;;;;;5072187;28;20229;-63
2021/10/17 03:22:54;;;;;;;7.10;6.40;;;5.10;77.00;;;;;;5073594;28;20285;-63
2021/10/17 03:25:25;;;;;;;5.85;5.25;;;5.10;76.90;;;;;;5076235;28;20278;-63
2021/10/17 03:27:52;;;;;;;8.05;5.38;;;5.20;77.30;;;;;;5076126;28;20195;-63
2021/10/17 03:30:19;;;;;;;6.55;4.88;;;5.20;77.00;;;;;;5075692;28;20310;-63
2021/10/17 03:32:46;;;;;;;5.60;4.97;;;5.10;76.70;;;;;;5075550;28;20284;-64
2021/10/17 03:35:17;;;;;;;7.05;4.90;;;5.10;75.50;;;;;;5075436;28;20285;-63
2021/10/17 03:37:45;;;;;;;6.40;4.65;;;5.00;75.50;;;;;;5075568;28;20277;-63
2021/10/17 03:40:13;;;;;;;6.43;5.57;;;5.00;75.80;;;;;;5075785;28;20225;-63
2021/10/17 03:42:40;;;;;;;7.53;4.57;;;4.90;75.80;;;;;;5075592;28;20229;-65
2021/10/17 03:45:08;;;;;;;5.35;3.90;;;4.90;76.00;;;;;;5075647;28;20293;-64
2021/10/17 03:47:38;;;;;;;8.15;5.28;;;4.90;75.90;;;;;;5075765;28;20236;-63
2021/10/17 03:50:06;;;;;;;8.50;4.82;;;4.90;75.80;;;;;;5075503;28;20276;-63
2021/10/17 03:52:34;;;;;;;8.23;4.55;;;4.90;76.20;;;;;;5075451;28;20276;-63
2021/10/17 03:55:03;;;;;;;6.30;5.18;;;4.90;76.60;;;;;;5075324;28;20194;-63
2021/10/17 03:57:31;;;;;;;6.20;5.25;;;4.90;77.00;;;;;;5075567;28;20244;-63
2021/10/17 03:59:58;;;;;;;6.28;4.82;;;4.80;76.90;;;;;;5075366;28;20312;-64
2021/10/17 04:02:25;;;;;;;7.07;4.50;;;4.80;77.20;;;;;;5075568;28;20272;-63
2021/10/17 04:04:52;;;;;;;6.70;5.35;;;4.80;77.10;;;;;;5075208;28;20276;-63
2021/10/17 04:07:19;;;;;;;5.88;4.70;;;4.80;76.60;;;;;;5075564;28;20451;-62
2021/10/17 04:09:48;;;;;;;7.00;5.20;;;4.80;76.50;;;;;;5075080;28;20225;-64
2021/10/17 04:12:17;;;;;;;6.63;4.72;;;4.80;76.60;;;;;;5075368;28;20276;-63
2021/10/17 04:14:44;;;;;;;7.43;4.72;;;4.80;76.60;;;;;;5075041;28;20197;-63
2021/10/17 04:17:11;;;;;;;6.97;4.85;;;4.80;77.10;;;;;;5075107;28;20614;-63
2021/10/17 04:19:43;;;;;;;10.80;6.90;;;4.80;76.90;;;;;;5075046;28;20307;-64
2021/10/17 04:22:10;;;;;;;8.52;4.20;;;4.80;77.60;;;;;;5075194;28;20289;-63
2021/10/17 04:24:38;;;;;;;12.27;5.30;;;4.80;78.10;;;;;;5075303;28;20276;-64
2021/10/17 04:27:07;;;;;;;7.30;5.10;;;4.80;78.40;;;;;;5075164;28;20236;-63
2021/10/17 04:29:36;;;;;;;7.15;5.35;;;4.80;79.00;;;;;;5075356;28;20247;-62
2021/10/17 04:32:03;;;;;;;9.77;6.57;;;4.80;79.30;;;;;;5075123;28;20682;-63
2021/10/17 04:34:30;;;;;;;8.90;5.78;;;4.80;79.30;;;;;;5073635;28;20255;-63
2021/10/17 04:36:58;;;;;;;8.75;5.22;;;4.80;78.90;;;;;;5074888;28;20194;-63
2021/10/17 04:39:26;;;;;;;9.90;5.72;;;4.90;79.40;;;;;;5074529;28;20308;-62
2021/10/17 04:41:54;;;;;;;8.25;5.75;;;4.90;79.30;;;;;;5074792;28;20285;-63
2021/10/17 04:44:21;;;;;;;8.40;6.65;;;4.90;79.30;;;;;;5074811;28;20277;-62
2021/10/17 04:46:55;;;;;;;10.70;8.27;;;4.70;78.40;;;;;;5074514;28;20236;-67
2021/10/17 04:49:25;;;;;;;13.48;7.80;;;4.70;79.00;;;;;;5074606;28;20193;-62
2021/10/17 04:51:52;;;;;;;10.88;8.30;;;4.70;79.40;;;;;;5074489;28;20198;-62
2021/10/17 04:54:24;;;;;;;13.77;7.43;;;4.70;79.10;;;;;;5074590;28;20221;-63
2021/10/17 04:56:51;;;;;;;15.40;8.15;;;4.70;80.10;;;;;;5074200;28;20280;-63
2021/10/17 04:59:21;;;;;;;9.93;5.65;;;4.60;80.20;;;;;;5074429;28;20253;-63
2021/10/17 05:01:48;;;;;;;24.23;6.53;;;4.60;80.60;;;;;;5074385;28;20189;-63
2021/10/17 05:04:16;;;;;;;7.25;5.88;;;4.60;80.70;;;;;;5074400;28;20198;-63
2021/10/17 05:06:43;;;;;;;9.48;5.68;;;4.50;81.60;;;;;;5074214;28;20277;-63
2021/10/17 05:09:10;;;;;;;12.38;6.32;;;4.50;81.90;;;;;;5073873;28;20316;-63
2021/10/17 05:11:38;;;;;;;8.00;5.38;;;4.40;81.20;;;;;;5074155;28;20228;-63
2021/10/17 05:14:05;;;;;;;10.40;5.57;;;4.40;80.90;;;;;;5074407;28;20229;-63
2021/10/17 05:16:32;;;;;;;9.52;6.13;;;4.40;80.70;;;;;;5074155;28;20285;-63
2021/10/17 05:18:59;;;;;;;6.95;5.65;;;4.40;80.40;;;;;;5073892;28;20755;-63
2021/10/17 05:21:28;;;;;;;8.38;6.00;;;4.30;80.60;;;;;;5074165;28;20273;-63
2021/10/17 05:23:57;;;;;;;7.10;6.05;;;4.30;81.30;;;;;;5074165;28;20190;-63
2021/10/17 05:26:24;;;;;;;7.55;6.43;;;4.40;81.10;;;;;;5074065;28;20221;-63
2021/10/17 05:28:51;;;;;;;9.60;5.93;;;4.40;81.20;;;;;;5073927;28;20280;-63
2021/10/17 05:31:24;;;;;;;8.65;5.90;;;4.40;81.50;;;;;;5073979;28;20280;-62
2021/10/17 05:33:51;;;;;;;8.77;6.00;;;4.40;81.20;;;;;;5073875;28;20284;-63
2021/10/17 05:36:18;;;;;;;7.43;6.22;;;4.50;81.40;;;;;;5073684;28;20281;-63
2021/10/17 05:38:49;;;;;;;13.27;6.05;;;4.40;81.30;;;;;;5073734;28;20296;-63
2021/10/17 05:41:16;;;;;;;7.35;5.80;;;4.50;81.80;;;;;;5073979;28;20243;-62
2021/10/17 05:43:43;;;;;;;12.30;7.47;;;4.40;80.80;;;;;;5073817;28;20288;-63
2021/10/17 05:46:10;;;;;;;13.52;7.18;;;4.40;80.50;;;;;;5073036;28;20251;-63
2021/10/17 05:48:37;;;;;;;11.13;7.60;;;4.40;80.70;;;;;;5073651;28;20272;-64
2021/10/17 05:51:04;;;;;;;14.90;8.23;;;4.40;80.50;;;;;;5073611;28;20197;-62
2021/10/17 05:53:31;;;;;;;16.20;8.95;;;4.50;79.80;;;;;;5073475;28;20592;-63
2021/10/17 05:56:00;;;;;;;10.02;8.38;;;4.40;80.30;;;;;;5073589;28;20201;-63
2021/10/17 05:58:29;;;;;;;9.20;6.75;;;4.40;80.80;;;;;;5073373;28;20300;-63
2021/10/17 06:00:56;;;;;;;8.13;6.20;;;4.50;80.40;;;;;;5073464;28;20712;-63
2021/10/17 06:03:26;;;;;;;10.38;5.53;;;4.50;80.90;;;;;;5073421;28;20243;-63
2021/10/17 06:05:59;;;;;;;7.50;5.80;;;4.50;81.20;;;;;;5073442;28;20559;-63
2021/10/17 06:08:26;;;;;;;9.13;7.15;;;4.60;81.60;;;;;;5072817;28;20194;-63
2021/10/17 06:10:54;;;;;;;16.08;7.70;;;4.70;81.70;;;;;;5073163;28;20239;-63
2021/10/17 06:13:23;;;;;;;9.88;7.55;;;4.80;81.50;;;;;;5073095;28;20186;-63
2021/10/17 06:15:55;;;;;;;8.65;7.00;;;4.90;81.60;;;;;;5072974;28;20646;-63
2021/10/17 06:18:23;;;;;;;10.45;7.75;;;5.00;80.90;;;;;;5073152;28;20281;-63
2021/10/17 06:20:50;;;;;;;8.88;7.30;;;5.10;80.40;;;;;;5072995;28;20217;-63
2021/10/17 06:23:17;;;;;;;8.10;6.20;;;5.20;79.50;;;;;;5072892;28;20284;-63
2021/10/17 06:25:44;;;;;;;7.63;6.85;;;5.30;79.50;;;;;;5072889;28;20189;-63
2021/10/17 06:28:11;;;;;;;10.43;7.70;;;5.40;79.30;;;;;;5073016;28;20281;-63
2021/10/17 06:30:40;;;;;;;7.47;6.63;;;5.60;78.60;;;;;;5073244;28;20193;-63
2021/10/17 06:33:07;;;;;;;7.95;6.20;;;5.70;78.60;;;;;;5072892;28;20276;-63
2021/10/17 06:35:35;;;;;;;11.70;9.98;;;6.00;79.10;;;;;;5072944;28;20194;-63
2021/10/17 06:38:02;;;;;;;6.28;5.50;;;6.30;78.10;;;;;;5073138;28;20276;-63
2021/10/17 06:40:29;;;;;;;8.65;6.38;;;6.50;77.90;;;;;;5072886;28;20308;-63
2021/10/17 06:42:57;;;;;;;9.77;6.90;;;6.80;76.60;;;;;;5072724;28;20276;-63
2021/10/17 06:45:24;;;;;;;10.82;8.20;;;7.10;76.00;;;;;;5072755;28;20193;-63
2021/10/17 06:47:52;;;;;;;9.88;6.30;;;7.20;71.50;;;;;;5072732;28;20288;-63
2021/10/17 06:50:20;;;;;;;11.57;6.50;;;7.30;71.90;;;;;;5072678;28;20744;-63
2021/10/17 06:52:48;;;;;;;8.07;6.35;;;7.60;70.80;;;;;;5072460;28;20221;-67
2021/10/17 06:55:15;;;;;;;8.88;6.05;;;7.80;69.20;;;;;;5072528;28;20216;-63
2021/10/17 06:57:45;;;;;;;7.47;5.85;;;8.10;68.90;;;;;;5074158;28;20281;-63
2021/10/17 07:00:12;;;;;;;8.88;5.63;;;8.50;69.30;;;;;;5076737;28;20658;-63
2021/10/17 07:02:40;;;;;;;9.60;7.00;;;9.00;68.60;;;;;;5076912;28;20276;-64
2021/10/17 07:05:09;;;;;;;8.63;7.40;;;9.50;65.80;;;;;;5076698;28;20280;-65
2021/10/17 07:07:36;;;;;;;14.13;8.38;;;9.80;63.70;;;;;;5076934;28;20558;-63
2021/10/17 07:10:03;;;;;;;14.48;10.90;;;10.10;62.50;;;;;;5076539;28;20303;-63
2021/10/17 07:12:30;;;;;;;14.27;11.02;;;10.70;62.20;;;;;;5076500;28;20726;-63
2021/10/17 07:14:57;;;;;;;11.35;10.07;;;11.30;59.10;;;;;;5076555;28;20233;-63
2021/10/17 07:17:24;;;;;;;14.00;12.35;;;11.90;59.30;;;;;;5076496;28;20273;-64
2021/10/17 07:19:51;;;;;;;11.73;9.75;;;12.60;57.90;;;;;;5076326;28;20260;-64
2021/10/17 07:22:20;;;;;;;12.63;9.45;;;13.30;55.30;;;;;;5076282;28;20735;-63
2021/10/17 07:24:47;;;;;;;12.98;9.15;;;13.90;53.80;;;;;;5076532;28;20276;-63
2021/10/17 07:27:16;;;;;;;9.60;7.82;;;14.50;53.30;;;;;;5076469;28;20193;-64
2021/10/17 07:29:47;;;;;;;11.93;7.60;;;15.10;50.10;;;;;;5076174;28;20285;-64
2021/10/17 07:32:14;;;;;;;8.90;7.95;;;15.90;48.70;;;;;;5076400;28;20201;-63
2021/10/17 07:34:45;;;;;;;8.40;7.18;;;16.60;47.60;;;;;;5076288;28;20228;-64
2021/10/17 07:37:12;;;;;;;8.43;7.53;;;17.50;46.60;;;;;;5076673;28;20200;-65
2021/10/17 07:39:41;;;;;;;9.43;8.45;;;18.50;44.40;;;;;;5076488;28;20304;-64
2021/10/17 07:42:08;;;;;;;11.93;8.93;;;19.40;43.00;;;;;;5075968;28;20280;-64
2021/10/17 07:44:35;;;;;;;10.10;7.00;;;20.40;40.90;;;;;;5076157;28;20443;-64
2021/10/17 07:47:02;;;;;;;8.03;6.80;;;21.30;38.80;;;;;;5075878;28;20440;-64
2021/10/17 07:49:29;;;;;;;7.20;6.37;;;22.10;36.90;;;;;;5076103;28;20526;-64
2021/10/17 07:51:56;;;;;;;8.50;7.70;;;22.90;35.50;;;;;;5075834;28;20523;-64
2021/10/17 07:54:23;;;;;;;7.83;7.10;;;23.80;33.90;;;;;;5075949;28;20523;-64
2021/10/17 07:56:51;;;;;;;8.30;7.50;;;24.60;32.30;;;;;;5075730;28;20859;-65
2021/10/17 07:59:18;;;;;;;8.40;7.30;;;25.40;30.80;;;;;;5075670;28;20523;-64
2021/10/17 08:01:54;;;;;;;7.60;6.80;;;26.10;29.40;;;;;;5075681;28;20539;-62
2021/10/17 08:04:21;;;;;;;8.10;7.00;;;26.80;28.50;;;;;;5075764;28;21029;-64
2021/10/17 08:06:48;;;;;;;8.43;7.50;;;27.40;27.80;;;;;;5075779;28;20519;-65
2021/10/17 08:09:18;;;;;;;8.60;7.37;;;28.10;26.80;;;;;;5074855;28;20514;-65
2021/10/17 08:11:45;;;;;;;8.53;7.07;;;28.70;26.00;;;;;;5075547;28;20468;-64
2021/10/17 08:14:13;;;;;;;7.00;6.30;;;29.30;25.40;;;;;;5075777;28;20519;-64
2021/10/17 08:16:40;;;;;;;7.13;6.43;;;29.70;24.70;;;;;;5075701;28;20519;-67
2021/10/17 08:19:07;;;;;;;5.87;5.13;;;30.40;24.50;;;;;;5075507;28;20531;-64
2021/10/17 08:21:35;;;;;;;6.80;5.77;;;31.30;23.10;;;;;;5075525;28;20577;-64
2021/10/17 08:24:03;;;;;;;6.53;5.40;;;31.90;22.90;;;;;;5075503;28;20476;-65
2021/10/17 08:26:30;;;;;;;6.07;4.90;;;32.30;22.70;;;;;;5075314;28;20853;-64
2021/10/17 08:28:57;;;;;;;5.70;4.80;;;33.00;22.40;;;;;;5075341;28;20514;-64
2021/10/17 08:31:26;;;;;;;6.57;5.37;;;33.50;21.40;;;;;;5075142;28;20946;-64
2021/10/17 08:33:53;;;;;;;7.83;5.67;;;34.30;20.80;;;;;;5074975;28;20473;-66
2021/10/17 08:36:23;;;;;;;6.17;5.57;;;34.80;20.00;;;;;;5075068;28;20829;-64
2021/10/17 08:38:50;;;;;;;6.17;5.37;;;35.40;20.10;;;;;;5075084;28;20535;-65
2021/10/17 08:41:17;;;;;;;6.00;5.50;;;36.00;17.80;;;;;;5074802;28;20566;-65
2021/10/17 08:43:44;;;;;;;5.43;4.93;;;36.30;19.00;;;;;;5075108;28;20523;-64
2021/10/17 08:46:12;;;;;;;5.20;4.70;;;36.80;18.50;;;;;;5075202;28;20930;-65
2021/10/17 08:48:42;;;;;;;6.77;6.17;;;37.40;18.10;;;;;;5075057;28;20436;-65
2021/10/17 08:51:23;;;;;;;7.40;5.27;;;38.20;17.10;;;;;;5075014;28;20524;-65
2021/10/17 08:53:59;;;;;;;6.77;6.07;;;38.60;16.80;;;;;;5075097;28;20522;-65
2021/10/17 08:56:27;;;;;;;6.93;6.10;;;39.00;16.20;;;;;;5075038;28;20918;-65
2021/10/17 08:58:54;;;;;;;7.03;6.43;;;39.50;16.50;;;;;;5074804;28;20522;-65
2021/10/17 09:01:21;;;;;;;6.27;5.67;;;40.00;15.70;;;;;;5074715;28;20522;-63
2021/10/17 09:03:56;;;;;;;7.17;6.47;;;40.40;15.20;;;;;;5074352;28;21001;-65
2021/10/17 09:06:27;;;;;;;6.10;5.50;;;40.90;14.90;;;;;;5074767;28;20518;-64
2021/10/17 09:09:10;;;;;;;7.03;6.37;;;41.30;14.70;;;;;;5074457;28;20472;-65
2021/10/17 09:11:43;;;;;;;6.10;5.53;;;41.70;14.60;;;;;;5074645;28;20436;-66
2021/10/17 09:14:15;;;;;;;6.57;5.70;;;42.10;14.40;;;;;;5074627;28;20435;-63
2021/10/17 09:16:43;;;;;;;6.27;5.77;;;42.60;14.20;;;;;;5074654;28;20482;-64
2021/10/17 09:19:22;;;;;;;5.90;5.40;;;43.10;14.00;;;;;;5074445;28;20479;-63
2021/10/17 09:22:06;;;;;;;6.43;5.63;;;43.50;14.20;;;;;;5073819;28;20899;-63
2021/10/17 09:24:36;;;;;;;5.80;5.30;;;43.30;12.90;;;;;;5073969;28;20443;-63
2021/10/17 09:27:13;;;;;;;7.30;5.80;;;43.40;13.10;;;;;;5074142;28;20436;-63
2021/10/17 09:29:41;;;;;;;5.30;4.90;;;43.70;12.80;;;;;;5073966;28;20454;-64
2021/10/17 09:32:14;;;;;;;6.83;6.23;;;43.90;12.70;;;;;;5073980;28;20493;-64
2021/10/17 09:34:53;;;;;;;7.67;7.07;;;44.30;12.80;;;;;;5073956;28;20476;-66
2021/10/17 09:37:20;;;;;;;7.30;6.60;;;44.50;11.80;;;;;;5073906;28;20787;-66
2021/10/17 09:40:02;;;;;;;7.17;6.47;;;44.50;12.00;;;;;;5073820;28;20444;-65
2021/10/17 09:42:36;;;;;;;7.33;6.60;;;44.50;11.60;;;;;;5073703;28;20743;-63
2021/10/17 09:45:27;;;;;;;7.20;6.60;;;44.90;11.70;;;;;;5073969;28;20432;-66
2021/10/17 09:47:54;;;;;;;7.70;6.67;;;45.30;11.60;;;;;;5058716;28;20479;-65
2021/10/17 09:50:22;;;;;;;7.77;7.07;;;45.80;11.40;;;;;;5073502;28;21021;-65
2021/10/17 09:53:11;;;;;;;7.80;7.03;;;46.40;10.90;;;;;;5073893;28;20522;-63
2021/10/17 09:55:38;;;;;;;8.33;7.63;;;46.70;11.10;;;;;;5073790;28;20448;-64
2021/10/17 09:58:06;;;;;;;8.43;7.70;;;47.00;11.10;;;;;;5073544;28;20448;-63
2021/10/17 10:00:39;;;;;;;8.80;8.10;;;47.30;10.50;;;;;;5073543;28;20767;-63
2021/10/17 10:03:08;;;;;;;12.27;11.27;;;47.50;10.60;;;;;;5073577;28;20931;-63
2021/10/17 10:05:38;;;;;;;9.10;8.30;;;47.50;10.00;;;;;;5073463;28;20435;-63
2021/10/17 10:08:07;;;;;;;9.97;9.00;;;47.70;10.30;;;;;;5073329;28;20468;-65
2021/10/17 10:10:36;;;;;;;11.50;10.30;;;47.90;9.90;;;;;;5073274;28;20491;-65
2021/10/17 10:13:04;;;;;;;11.43;10.47;;;47.50;9.90;;;;;;5073179;28;20440;-65
2021/10/17 10:15:32;;;;;;;12.33;11.30;;;47.50;10.10;;;;;;5072869;28;20531;-63
2021/10/17 10:18:00;;;;;;;13.13;11.97;;;47.80;10.40;;;;;;5072879;28;21017;-63
2021/10/17 10:20:27;;;;;;;12.07;10.97;;;48.40;9.80;;;;;;5072942;28;20482;-63
2021/10/17 10:22:56;;;;;;;13.40;12.10;;;48.70;9.40;;;;;;5073012;28;20876;-65
2021/10/17 10:25:25;;;;;;;12.70;11.67;;;48.90;9.60;;;;;;5073263;28;20957;-63
2021/10/17 10:27:53;;;;;;;10.53;9.60;;;48.90;9.00;;;;;;5073152;28;20479;-64
2021/10/17 10:30:28;;;;;;;12.37;11.27;;;48.90;9.60;;;;;;5072763;28;20573;-63
2021/10/17 10:33:19;;;;;;;12.70;11.60;;;49.10;9.40;;;;;;5073048;28;20431;-63
2021/10/17 10:36:13;;;;;;;13.90;12.80;;;49.30;9.30;;;;;;5057839;28;20538;-63
2021/10/17 10:39:07;;;;;;;14.13;12.87;;;49.60;9.00;;;;;;5072925;28;20451;-64
2021/10/17 10:41:48;;;;;;;13.90;12.80;;;49.50;9.10;;;;;;5072931;28;20444;-63
2021/10/17 10:44:21;;;;;;;12.80;11.70;;;49.30;9.20;;;;;;5073114;28;20838;-63
2021/10/17 10:46:49;;;;;;;14.10;12.90;;;49.20;9.00;;;;;;5072785;28;20440;-66
2021/10/17 10:49:54;;;;;;;13.80;12.60;;;49.10;8.70;;;;;;5072790;28;20440;-63
2021/10/17 10:52:44;;;;;;;12.50;11.47;;;48.60;9.00;;;;;;5054726;28;20562;-63
2021/10/17 10:55:32;;;;;;;11.83;10.73;;;48.70;9.40;;;;;;5072953;28;20428;-63
2021/10/17 10:58:20;;;;;;;10.40;9.50;;;49.20;9.30;;;;;;5072918;28;20501;-63
2021/10/17 11:00:52;;;;;;;10.87;9.97;;;49.30;9.10;;;;;;5072618;28;20782;-63
2021/10/17 11:03:26;;;;;;;10.40;9.43;;;49.30;9.10;;;;;;5072423;28;20579;-63
2021/10/17 11:06:26;;;;;;;11.30;10.30;;;49.50;9.20;;;;;;5072364;28;20505;-63
2021/10/17 11:09:32;;;;;;;12.50;11.47;;;49.90;8.80;;;;;;5010099;28;20466;-63
2021/10/17 11:12:04;;;;;;;10.70;9.60;;;50.10;7.90;;;;;;5005584;28;20513;-65
2021/10/17 11:14:31;;;;;;;11.10;10.20;;;49.40;8.70;;;;;;5056285;28;20479;-65
2021/10/17 11:17:01;;;;;;;11.20;10.27;;;49.30;8.80;;;;;;5072677;28;20494;-65
2021/10/17 11:19:29;;;;;;;12.50;11.33;;;49.20;8.10;;;;;;5072488;28;20522;-65
2021/10/17 11:22:01;;;;;;;11.27;10.27;;;49.10;7.70;;;;;;5072538;28;20471;-65
2021/10/17 11:24:28;;;;;;;10.43;9.43;;;49.00;8.30;;;;;;5072511;28;20945;-66
2021/10/17 11:27:14;;;;;;;10.23;9.40;;;49.30;8.10;;;;;;5072426;28;20485;-63
2021/10/17 11:29:42;;;;;;;9.40;8.70;;;49.10;8.30;;;;;;5073229;28;20538;-65
2021/10/17 11:32:10;;;;;;;11.10;10.10;;;49.50;8.40;;;;;;5072866;28;20483;-65
2021/10/17 11:34:37;;;;;;;9.80;8.80;;;49.90;7.80;;;;;;5072584;28;20439;-65
2021/10/17 11:37:21;;;;;;;10.43;9.43;;;49.80;8.30;;;;;;5072487;28;20492;-64
2021/10/17 11:39:54;;;;;;;10.73;9.83;;;49.90;8.50;;;;;;5072366;28;20436;-65
2021/10/17 11:42:23;;;;;;;10.20;9.30;;;50.20;7.90;;;;;;5072548;28;20783;-65
2021/10/17 11:44:50;;;;;;;9.73;8.83;;;49.90;8.10;;;;;;5075433;28;20527;-65
2021/10/17 11:47:18;;;;;;;8.93;8.23;;;49.70;7.90;;;;;;5076002;28;20440;-66
2021/10/17 11:49:48;;;;;;;10.60;9.70;;;49.60;7.90;;;;;;5075981;28;20443;-66
2021/10/17 11:52:22;;;;;;;10.93;9.90;;;49.70;8.10;;;;;;5075987;28;20985;-65
2021/10/17 11:54:49;;;;;;;8.90;8.00;;;49.80;8.10;;;;;;5075997;28;20435;-65
2021/10/17 11:57:29;;;;;;;8.30;7.60;;;49.80;8.00;;;;;;5075808;28;20476;-65
2021/10/17 11:59:59;;;;;;;9.00;8.20;;;49.70;8.30;;;;;;5076018;28;20535;-65
2021/10/17 12:02:33;;;;;;;9.13;8.43;;;49.60;8.10;;;;;;5075931;28;20519;-65
2021/10/17 12:05:00;;;;;;;10.37;9.37;;;49.20;8.50;;;;;;5075845;28;20531;-65
2021/10/17 12:07:27;;;;;;;9.50;8.60;;;49.00;8.00;;;;;;5075857;28;20565;-65
2021/10/17 12:09:55;;;;;;;9.07;8.17;;;49.00;8.30;;;;;;5075504;28;20521;-64
2021/10/17 12:12:23;;;;;;;8.37;7.47;;;49.00;8.30;;;;;;5075313;28;20562;-64
2021/10/17 12:15:03;;;;;;;8.70;7.90;;;48.40;8.10;;;;;;5075594;28;20440;-65
2021/10/17 12:17:30;;;;;;;8.70;7.90;;;47.90;8.80;;;;;;5075398;28;20527;-65
2021/10/17 12:20:02;;;;;;;9.27;8.47;;;47.40;8.60;;;;;;5075432;28;20534;-64
2021/10/17 12:22:31;;;;;;;7.97;7.27;;;47.10;9.00;;;;;;5075653;28;20443;-65
2021/10/17 12:24:59;;;;;;;8.90;8.10;;;46.90;9.50;;;;;;5075424;28;20523;-64
2021/10/17 12:27:32;;;;;;;8.93;8.07;;;46.90;9.30;;;;;;5075278;28;20523;-65
2021/10/17 12:30:10;;;;;;;7.93;7.23;;;46.70;9.20;;;;;;5075209;28;20475;-65
2021/10/17 12:32:45;;;;;;;7.80;7.10;;;46.50;9.10;;;;;;5075303;28;20566;-64
2021/10/17 12:35:17;;;;;;;8.03;7.33;;;46.30;9.80;;;;;;5075188;28;20435;-65
2021/10/17 12:37:46;;;;;;;9.20;8.40;;;46.20;9.70;;;;;;5075159;28;20518;-65
2021/10/17 12:40:14;;;;;;;8.10;7.30;;;45.70;9.70;;;;;;5075336;28;20523;-65
2021/10/17 12:42:52;;;;;;;8.43;7.70;;;45.20;9.90;;;;;;5075011;28;20532;-65
2021/10/17 12:45:29;;;;;;;13.77;9.17;;;44.70;9.80;;;;;;5075045;28;20459;-64
2021/10/17 12:47:57;;;;;;;8.20;7.40;;;44.20;10.60;;;;;;5075024;28;20776;-65
2021/10/17 12:50:25;;;;;;;9.17;8.23;;;44.00;10.60;;;;;;5074796;28;20454;-64
2021/10/17 12:53:00;;;;;;;9.83;8.83;;;43.70;11.10;;;;;;5074912;28;20990;-64
2021/10/17 12:55:32;;;;;;;9.07;8.20;;;42.90;11.00;;;;;;5073635;28;20431;-64
2021/10/17 12:58:04;;;;;;;8.80;8.00;;;42.00;11.50;;;;;;5074457;28;20478;-64
2021/10/17 13:00:33;;;;;;;9.83;7.87;;;41.50;12.10;;;;;;5074706;28;20505;-64
2021/10/17 13:03:21;;;;;;;10.03;9.13;;;40.90;12.80;;;;;;5074527;28;20531;-64